Terminal Aerodrome Forecast
Issued by NWS

Home | Current Version | Previous Version | Text Only | Print | Product List | Glossary On
Versions: 1 2 3 4 5 6 7 8 9 10 11 12 13
171
FTUS44 KTSA 252339
TAFMLC
TAF
KMLC 252339Z 2600/2624 10006KT P6SM VCTS SCT050CB BKN150
     FM260600 VRB03KT P6SM BKN050
     FM261000 VRB03KT P6SM BKN050 PROB30 2610/2616 4SM TSRA BKN050CB
     FM261600 08005KT P6SM BKN100 PROB30 2616/2622 4SM TSRA
      BKN050CB=

USA.gov is the U.S. government's official web portal to all federal, state and local government web resources and services.